createdAt,value
2018-02-27T00:01:11.567Z,102162.08
2018-02-27T00:03:39.162Z,102157.41
2018-02-27T00:06:06.720Z,102155.61
2018-02-27T00:08:34.277Z,102158.28
2018-02-27T00:11:01.842Z,102153.19
2018-02-27T00:13:29.396Z,102154.69
2018-02-27T00:15:56.986Z,102155.23
2018-02-27T00:18:24.542Z,102152.23
2018-02-27T00:20:52.117Z,102151.63
2018-02-27T00:23:19.710Z,102158.70
2018-02-27T00:25:47.262Z,102158.92
2018-02-27T00:28:14.859Z,102158.89
2018-02-27T00:30:42.419Z,102165.03
2018-02-27T00:33:10.795Z,102155.98
2018-02-27T00:35:38.347Z,102161.37
2018-02-27T00:38:05.903Z,102164.50
2018-02-27T00:40:33.483Z,102155.73
2018-02-27T00:43:01.075Z,102157.12
2018-02-27T00:45:28.640Z,102152.97
2018-02-27T00:47:56.194Z,102148.16
2018-02-27T00:50:23.758Z,102147.59
2018-02-27T00:52:51.317Z,102142.70
2018-02-27T00:55:18.910Z,102140.89
2018-02-27T00:57:46.464Z,102148.59
2018-02-27T01:00:14.055Z,102141.40
2018-02-27T01:02:41.647Z,102130.42
2018-02-27T01:05:09.198Z,102132.40
2018-02-27T01:07:36.783Z,102134.30
2018-02-27T01:10:04.354Z,102125.09
2018-02-27T01:12:31.910Z,102132.16
2018-02-27T01:14:59.468Z,102133.19
2018-02-27T01:17:27.032Z,102132.59
2018-02-27T01:19:54.622Z,102124.77
2018-02-27T01:22:22.177Z,102127.58
2018-02-27T01:24:49.777Z,102113.60
2018-02-27T01:27:17.336Z,102125.84
2018-02-27T01:29:44.897Z,102123.27
2018-02-27T01:32:12.462Z,102120.95
2018-02-27T01:34:40.019Z,102123.91
2018-02-27T01:37:07.569Z,102129.47
2018-02-27T01:39:35.220Z,102120.63
2018-02-27T01:42:02.779Z,102116.48
2018-02-27T01:44:30.374Z,102108.70
2018-02-27T01:46:57.969Z,102116.51
2018-02-27T01:49:25.558Z,102112.81
2018-02-27T01:51:53.148Z,102119.33
2018-02-27T01:54:20.700Z,102111.00
2018-02-27T01:56:48.307Z,102102.53
2018-02-27T01:59:15.862Z,102100.28
2018-02-27T02:01:43.414Z,102097.16
2018-02-27T02:04:10.967Z,102087.17
2018-02-27T02:06:38.531Z,102088.67
2018-02-27T02:09:06.085Z,102085.84
2018-02-27T02:11:33.642Z,102083.90
2018-02-27T02:14:01.202Z,102083.52
2018-02-27T02:16:28.758Z,102078.95
2018-02-27T02:18:56.351Z,102080.02
2018-02-27T02:21:23.908Z,102070.03
2018-02-27T02:23:51.502Z,102077.22
2018-02-27T02:26:19.085Z,102070.75
2018-02-27T02:28:47.512Z,102063.63
2018-02-27T02:31:15.966Z,102069.88
2018-02-27T02:33:43.535Z,102067.13
2018-02-27T02:36:11.099Z,102062.56
2018-02-27T02:38:38.654Z,102058.43
2018-02-27T02:41:06.208Z,102069.50
2018-02-27T02:43:34.480Z,102064.28
2018-02-27T02:46:02.287Z,102063.87
2018-02-27T02:48:29.847Z,102057.54
2018-02-27T02:50:57.409Z,102056.77
2018-02-27T02:53:24.966Z,102056.50
2018-02-27T02:55:52.522Z,102059.07
2018-02-27T02:58:20.087Z,102061.03
2018-02-27T03:00:47.651Z,102059.64
2018-02-27T03:03:15.224Z,102059.17
2018-02-27T03:05:42.787Z,102064.56
2018-02-27T03:08:10.343Z,102060.65
2018-02-27T03:10:37.910Z,102063.64
2018-02-27T03:13:05.508Z,102053.44
2018-02-27T03:15:33.058Z,102058.78
2018-02-27T03:18:00.642Z,102059.61
2018-02-27T03:20:28.201Z,102047.38
2018-02-27T03:22:55.757Z,102047.60
2018-02-27T03:25:23.316Z,102051.30
2018-02-27T03:27:50.865Z,102045.60
2018-02-27T03:30:18.424Z,102044.83
2018-02-27T03:32:46.014Z,102036.81
2018-02-27T03:35:13.566Z,102038.12
2018-02-27T03:37:41.125Z,102034.56
2018-02-27T03:40:08.719Z,102031.78
2018-02-27T03:42:36.284Z,102025.34
2018-02-27T03:45:03.871Z,102022.64
2018-02-27T03:47:31.426Z,102025.08
2018-02-27T03:49:59.064Z,102018.44
2018-02-27T03:52:26.636Z,102020.91
2018-02-27T03:54:55.002Z,102018.04
2018-02-27T03:57:22.562Z,102019.86
2018-02-27T03:59:50.150Z,102010.81
2018-02-27T04:02:17.707Z,102008.78
2018-02-27T04:04:46.194Z,102018.47
2018-02-27T04:07:13.751Z,102010.09
2018-02-27T04:09:41.309Z,102005.73
2018-02-27T04:12:08.870Z,102004.69
2018-02-27T04:14:37.283Z,102001.61
2018-02-27T04:17:05.650Z,102000.09
2018-02-27T04:19:34.135Z,101999.25
2018-02-27T04:22:01.727Z,102002.77
2018-02-27T04:24:29.319Z,102004.86
2018-02-27T04:26:56.915Z,102001.00
2018-02-27T04:29:24.515Z,102001.64
2018-02-27T04:31:52.848Z,102003.42
2018-02-27T04:34:20.402Z,102007.12
2018-02-27T04:36:48.913Z,102001.81
2018-02-27T04:39:17.184Z,101994.65
2018-02-27T04:41:44.744Z,102002.64
2018-02-27T04:44:12.300Z,102005.95
2018-02-27T04:46:40.693Z,102004.94
2018-02-27T04:49:09.114Z,101996.64
2018-02-27T04:51:37.435Z,101999.37
2018-02-27T04:54:05.035Z,101998.98
2018-02-27T04:56:33.350Z,102003.23
2018-02-27T04:59:00.908Z,101998.02
2018-02-27T05:01:28.895Z,101998.92
2018-02-27T05:03:57.251Z,101997.28
2018-02-27T05:06:25.801Z,101995.66
2018-02-27T05:08:53.401Z,102002.77
2018-02-27T05:11:21.004Z,102000.80
2018-02-27T05:13:49.471Z,102000.41
2018-02-27T05:16:17.068Z,101996.85
2018-02-27T05:18:45.384Z,101992.06
2018-02-27T05:21:13.914Z,101990.98
2018-02-27T05:23:41.481Z,101990.62
2018-02-27T05:26:09.081Z,101987.70
2018-02-27T05:28:36.712Z,101983.02
2018-02-27T05:31:04.280Z,101984.12
2018-02-27T05:33:31.834Z,101984.09
2018-02-27T05:36:00.283Z,101976.42
2018-02-27T05:38:27.879Z,101973.66
2018-02-27T05:40:55.439Z,101982.00
2018-02-27T05:43:23.044Z,101982.95
2018-02-27T05:45:50.606Z,101978.70
2018-02-27T05:48:19.044Z,101982.79
2018-02-27T05:50:46.608Z,101982.35
2018-02-27T05:53:14.173Z,101980.77
2018-02-27T05:55:41.767Z,101976.04
2018-02-27T05:58:09.331Z,101981.47
2018-02-27T06:00:37.687Z,101977.34
2018-02-27T06:03:06.059Z,101966.91
2018-02-27T06:05:33.622Z,101977.16
2018-02-27T06:08:01.178Z,101970.26
2018-02-27T06:10:28.738Z,101974.77
2018-02-27T06:12:56.300Z,101971.22
2018-02-27T06:15:23.857Z,101974.17
2018-02-27T06:17:51.466Z,101981.03
2018-02-27T06:20:19.023Z,101977.87
2018-02-27T06:22:46.585Z,101985.52
2018-02-27T06:25:14.154Z,101980.48
2018-02-27T06:27:41.731Z,101976.53
2018-02-27T06:30:09.311Z,101977.70
2018-02-27T06:32:37.644Z,101985.27
2018-02-27T06:35:05.215Z,101974.38
2018-02-27T06:37:32.784Z,101977.10
2018-02-27T06:40:00.447Z,101982.05
2018-02-27T06:45:18.555Z,101974.66
2018-02-27T06:47:47.094Z,101970.84
2018-02-27T06:50:15.470Z,101969.90
2018-02-27T06:52:43.051Z,101972.28
2018-02-27T06:55:10.639Z,101972.34
2018-02-27T06:57:38.230Z,101975.75
2018-02-27T07:00:05.826Z,101967.00
2018-02-27T07:02:33.404Z,101978.72
2018-02-27T07:05:01.022Z,101976.15
2018-02-27T07:07:29.383Z,101972.09
2018-02-27T07:09:57.780Z,101961.02
2018-02-27T07:12:25.392Z,101967.91
2018-02-27T07:14:53.765Z,101969.56
2018-02-27T07:17:22.084Z,101964.38
2018-02-27T07:19:49.670Z,101957.05
2018-02-27T07:22:17.301Z,101961.92
2018-02-27T07:24:45.643Z,101958.15
2018-02-27T07:27:13.998Z,101964.69
2018-02-27T07:29:41.618Z,101961.77
2018-02-27T07:32:09.377Z,101964.36
2018-02-27T07:34:36.972Z,101968.66
2018-02-27T07:37:05.482Z,101962.61
2018-02-27T07:39:33.942Z,101970.67
2018-02-27T07:42:02.301Z,101964.41
2018-02-27T07:44:30.668Z,101966.11
2018-02-27T07:46:59.035Z,101966.41
2018-02-27T07:49:26.628Z,101959.36
2018-02-27T07:51:54.220Z,101950.81
2018-02-27T07:54:22.710Z,101950.36
2018-02-27T07:56:51.151Z,101950.67
2018-02-27T07:59:19.673Z,101948.37
2018-02-27T08:01:47.252Z,101943.17
2018-02-27T08:04:15.738Z,101943.41
2018-02-27T08:06:44.071Z,101941.55
2018-02-27T08:09:12.367Z,101949.45
2018-02-27T08:11:39.947Z,101946.52
2018-02-27T08:14:08.482Z,101945.73
2018-02-27T08:16:36.073Z,101945.81
2018-02-27T08:19:03.696Z,101949.75
2018-02-27T08:21:31.291Z,101947.81
2018-02-27T08:23:59.819Z,101950.34
2018-02-27T08:26:27.426Z,101952.11
2018-02-27T08:28:55.077Z,101948.98
2018-02-27T08:31:22.671Z,101943.23
2018-02-27T08:33:50.284Z,101943.95
2018-02-27T08:36:18.677Z,101933.99
2018-02-27T08:38:46.296Z,101946.28
2018-02-27T08:41:13.934Z,101937.25
2018-02-27T08:43:41.554Z,101940.70
2018-02-27T08:46:09.190Z,101929.20
2018-02-27T08:48:37.750Z,101919.84
2018-02-27T08:51:05.335Z,101923.73
2018-02-27T08:53:33.754Z,101915.89
2018-02-27T08:56:01.376Z,101915.14
2018-02-27T08:58:28.951Z,101916.78
2018-02-27T09:00:56.534Z,101915.64
2018-02-27T09:03:24.119Z,101912.52
2018-02-27T09:05:52.613Z,101919.79
2018-02-27T09:08:21.186Z,101914.97
2018-02-27T09:10:49.772Z,101912.08
2018-02-27T09:13:18.304Z,101914.74
2018-02-27T09:15:45.895Z,101916.36
2018-02-27T09:18:13.638Z,101916.05
2018-02-27T09:20:41.227Z,101911.81
2018-02-27T09:23:08.807Z,101909.91
2018-02-27T09:25:36.383Z,101897.73
2018-02-27T09:28:03.968Z,101903.01
2018-02-27T09:30:31.586Z,101903.04
2018-02-27T09:32:59.168Z,101899.45
2018-02-27T09:35:26.759Z,101894.78
2018-02-27T09:37:54.347Z,101887.50
2018-02-27T09:40:21.973Z,101882.78
2018-02-27T09:42:49.558Z,101888.22
2018-02-27T09:45:17.142Z,101879.47
2018-02-27T09:47:44.720Z,101878.17
2018-02-27T09:50:13.126Z,101876.73
2018-02-27T09:52:41.586Z,101876.70
2018-02-27T09:55:09.171Z,101873.73
2018-02-27T09:57:36.752Z,101867.45
2018-02-27T10:00:04.335Z,101869.59
2018-02-27T10:02:31.935Z,101875.34
2018-02-27T10:04:59.513Z,101869.88
2018-02-27T10:07:27.101Z,101860.21
2018-02-27T10:09:54.683Z,101866.09
2018-02-27T10:12:22.282Z,101872.50
2018-02-27T10:14:49.859Z,101869.09
2018-02-27T10:17:17.434Z,101866.56
2018-02-27T10:19:45.015Z,101860.50
2018-02-27T10:22:12.632Z,101869.95
2018-02-27T10:24:40.210Z,101864.59
2018-02-27T10:27:07.792Z,101864.66
2018-02-27T10:29:35.392Z,101865.13
2018-02-27T10:32:02.975Z,101859.61
2018-02-27T10:34:30.555Z,101860.00
2018-02-27T10:36:58.134Z,101867.69
2018-02-27T10:39:26.489Z,101857.09
2018-02-27T10:41:54.073Z,101855.38
2018-02-27T10:44:22.334Z,101854.95
2018-02-27T10:46:49.916Z,101854.11
2018-02-27T10:49:17.498Z,101849.84
2018-02-27T10:51:45.986Z,101851.96
2018-02-27T10:54:13.571Z,101848.13
2018-02-27T10:56:41.944Z,101849.39
2018-02-27T10:59:10.295Z,101848.98
2018-02-27T11:01:38.326Z,101843.02
2018-02-27T11:04:05.911Z,101843.00
2018-02-27T11:06:34.275Z,101838.73
2018-02-27T11:09:01.862Z,101843.87
2018-02-27T11:11:29.491Z,101838.32
2018-02-27T11:13:57.066Z,101838.75
2018-02-27T11:16:25.463Z,101841.31
2018-02-27T11:18:53.087Z,101837.47
2018-02-27T11:21:21.411Z,101836.63
2018-02-27T11:23:49.763Z,101837.91
2018-02-27T11:26:18.035Z,101837.05
2018-02-27T11:28:46.407Z,101826.37
2018-02-27T11:31:14.728Z,101833.22
2018-02-27T11:33:42.304Z,101828.95
2018-02-27T11:36:10.833Z,101823.78
2018-02-27T11:38:38.708Z,101826.34
2018-02-27T11:41:06.287Z,101817.80
2018-02-27T11:43:34.751Z,101819.53
2018-02-27T11:46:02.400Z,101817.38
2018-02-27T11:48:30.928Z,101810.53
2018-02-27T11:50:59.312Z,101820.39
2018-02-27T11:53:27.688Z,101811.86
2018-02-27T11:55:55.271Z,101809.77
2018-02-27T11:58:23.787Z,101806.29
2018-02-27T12:00:52.075Z,101807.12
2018-02-27T12:03:19.659Z,101799.44
2018-02-27T12:05:47.239Z,101801.57
2018-02-27T12:08:14.862Z,101799.87
2018-02-27T12:10:43.251Z,101792.58
2018-02-27T12:13:10.834Z,101795.16
2018-02-27T12:15:39.350Z,101788.19
2018-02-27T12:18:06.930Z,101788.38
2018-02-27T12:20:34.506Z,101796.88
2018-02-27T12:23:02.128Z,101793.52
2018-02-27T12:25:30.499Z,101792.67
2018-02-27T12:27:58.095Z,101796.51
2018-02-27T12:30:25.719Z,101790.98
2018-02-27T12:32:53.300Z,101782.45
2018-02-27T12:35:20.884Z,101781.97
2018-02-27T12:37:49.307Z,101776.88
2018-02-27T12:40:16.886Z,101780.62
2018-02-27T12:42:45.319Z,101779.25
2018-02-27T12:45:13.598Z,101778.31
2018-02-27T12:47:42.115Z,101782.08
2018-02-27T12:50:10.424Z,101778.05
2018-02-27T12:52:38.712Z,101775.51
2018-02-27T12:55:06.288Z,101780.97
2018-02-27T12:57:33.872Z,101774.12
2018-02-27T13:00:01.516Z,101778.92
2018-02-27T13:02:29.918Z,101778.15
2018-02-27T13:04:58.343Z,101778.69
2018-02-27T13:07:25.890Z,101779.07
2018-02-27T13:09:53.507Z,101782.89
2018-02-27T13:12:21.130Z,101781.66
2018-02-27T13:14:48.704Z,101774.77
2018-02-27T13:17:16.287Z,101775.63
2018-02-27T13:19:43.864Z,101775.16
2018-02-27T13:22:11.456Z,101766.06
2018-02-27T13:24:39.034Z,101768.92
2018-02-27T13:27:07.567Z,101773.27
2018-02-27T13:29:35.939Z,101764.99
2018-02-27T13:32:03.518Z,101761.66
2018-02-27T13:34:31.098Z,101767.27
2018-02-27T13:36:58.679Z,101760.22
2018-02-27T13:39:26.262Z,101766.20
2018-02-27T13:41:54.801Z,101767.52
2018-02-27T13:44:22.393Z,101766.11
2018-02-27T13:46:50.759Z,101760.53
2018-02-27T13:49:24.843Z,101771.04
2018-02-27T13:51:45.963Z,101759.45
2018-02-27T13:54:14.513Z,101761.20
2018-02-27T13:56:42.094Z,101752.55
2018-02-27T13:59:09.682Z,101757.95
2018-02-27T14:01:37.259Z,101756.39
2018-02-27T14:04:04.843Z,101753.36
2018-02-27T14:06:33.224Z,101751.70
2018-02-27T14:09:00.907Z,101760.64
2018-02-27T14:11:29.338Z,101757.65
2018-02-27T14:13:57.431Z,101752.45
2018-02-27T14:16:25.012Z,101760.34
2018-02-27T14:18:52.592Z,101756.44
2018-02-27T14:21:20.171Z,101758.84
2018-02-27T14:23:47.832Z,101759.35
2018-02-27T14:26:15.420Z,101764.63
2018-02-27T14:28:42.998Z,101764.16
2018-02-27T14:31:11.483Z,101764.72
2018-02-27T14:33:39.059Z,101764.98
2018-02-27T14:36:06.679Z,101759.84
2018-02-27T14:38:34.260Z,101761.23
2018-02-27T14:41:01.842Z,101766.91
2018-02-27T14:43:29.419Z,101762.94
2018-02-27T14:45:57.909Z,101765.04
2018-02-27T14:48:25.495Z,101772.36
2018-02-27T14:50:53.104Z,101773.59
2018-02-27T14:53:20.691Z,101775.33
2018-02-27T14:55:48.271Z,101769.88
2018-02-27T14:58:16.496Z,101766.45
2018-02-27T15:00:44.605Z,101778.39
2018-02-27T15:03:12.336Z,101781.45
2018-02-27T15:05:39.957Z,101772.91
2018-02-27T15:08:08.439Z,101779.66
2018-02-27T15:10:36.074Z,101776.68
2018-02-27T15:13:03.679Z,101778.41
2018-02-27T15:15:32.070Z,101783.98
2018-02-27T15:18:00.447Z,101775.92
2018-02-27T15:20:28.157Z,101794.20
2018-02-27T15:22:55.731Z,101786.95
2018-02-27T15:25:23.307Z,101775.89
2018-02-27T15:27:51.694Z,101784.86
2018-02-27T15:30:19.276Z,101787.90
2018-02-27T15:32:46.850Z,101790.08
2018-02-27T15:35:15.239Z,101786.17
2018-02-27T15:37:42.826Z,101781.40
2018-02-27T15:40:11.010Z,101792.58
2018-02-27T15:42:39.378Z,101787.52
2018-02-27T15:45:06.989Z,101788.38
2018-02-27T15:47:34.567Z,101793.95
2018-02-27T15:50:02.206Z,101793.11
2018-02-27T15:52:29.786Z,101802.94
2018-02-27T15:54:57.406Z,101804.23
2018-02-27T15:57:25.919Z,101803.34
2018-02-27T15:59:53.498Z,101805.49
2018-02-27T16:02:21.082Z,101814.00
2018-02-27T16:04:48.857Z,101816.55
2018-02-27T16:07:16.434Z,101814.42
2018-02-27T16:09:44.059Z,101821.19
2018-02-27T16:12:12.562Z,101822.89
2018-02-27T16:14:40.155Z,101823.72
2018-02-27T16:17:07.739Z,101821.48
2018-02-27T16:19:35.322Z,101829.15
2018-02-27T16:22:02.915Z,101829.16
2018-02-27T16:24:30.494Z,101831.17
2018-02-27T16:26:58.998Z,101830.75
2018-02-27T16:29:26.658Z,101829.38
2018-02-27T16:31:54.261Z,101834.86
2018-02-27T16:34:21.850Z,101832.31
2018-02-27T16:36:49.448Z,101840.34
2018-02-27T16:39:17.039Z,101836.04
2018-02-27T16:41:44.711Z,101847.91
2018-02-27T16:44:12.335Z,101850.37
2018-02-27T16:46:39.931Z,101857.54
2018-02-27T16:49:07.514Z,101853.66
2018-02-27T16:51:35.099Z,101863.38
2018-02-27T16:54:02.679Z,101863.34
2018-02-27T16:56:30.343Z,101866.27
2018-02-27T16:58:57.936Z,101873.48
2018-02-27T17:01:25.551Z,101872.54
2018-02-27T17:03:53.141Z,101879.66
2018-02-27T17:06:21.631Z,101869.78
2018-02-27T17:08:49.215Z,101875.70
2018-02-27T17:11:16.794Z,101884.12
2018-02-27T17:13:44.379Z,101880.79
2018-02-27T17:16:11.972Z,101887.46
2018-02-27T17:18:39.559Z,101887.06
2018-02-27T17:21:07.927Z,101893.33
2018-02-27T17:23:35.503Z,101896.13
2018-02-27T17:26:03.092Z,101898.13
2018-02-27T17:28:30.779Z,101894.33
2018-02-27T17:30:58.358Z,101898.08
2018-02-27T17:33:26.297Z,101895.86
2018-02-27T17:35:53.898Z,101906.39
2018-02-27T17:38:21.488Z,101906.00
2018-02-27T17:40:49.076Z,101909.80
2018-02-27T17:43:16.700Z,101905.87
2018-02-27T17:45:44.299Z,101903.64
2018-02-27T17:48:12.715Z,101909.11
2018-02-27T17:50:40.309Z,101906.45
2018-02-27T17:53:07.918Z,101903.34
2018-02-27T17:55:35.502Z,101910.16
2018-02-27T17:58:03.111Z,101908.65
2018-02-27T18:00:35.280Z,101905.83
2018-02-27T18:03:02.943Z,101909.78
2018-02-27T18:05:30.536Z,101903.59
2018-02-27T18:07:58.123Z,101912.10
2018-02-27T18:10:25.722Z,101910.98
2018-02-27T18:12:53.328Z,101909.27
2018-02-27T18:15:20.972Z,101914.36
2018-02-27T18:17:48.597Z,101908.37
2018-02-27T18:20:17.975Z,101918.43
2018-02-27T18:22:45.769Z,101923.41
2018-02-27T18:25:13.356Z,101914.42
2018-02-27T18:27:40.942Z,101918.30
2018-02-27T18:30:08.804Z,101915.70
2018-02-27T18:32:36.394Z,101921.98
2018-02-27T18:35:05.584Z,101924.48
2018-02-27T18:37:33.171Z,101924.31
2018-02-27T18:40:00.752Z,101925.60
2018-02-27T18:42:28.386Z,101923.39
2018-02-27T18:44:55.972Z,101921.09
2018-02-27T18:47:23.559Z,101928.87
2018-02-27T18:49:51.139Z,101920.65
2018-02-27T18:52:18.721Z,101916.82
2018-02-27T18:54:46.327Z,101922.78
2018-02-27T18:57:13.910Z,101926.66
2018-02-27T18:59:42.400Z,101933.07
2018-02-27T19:02:09.999Z,101939.01
2018-02-27T19:04:37.580Z,101934.30
2018-02-27T19:07:05.248Z,101943.83
2018-02-27T19:09:32.837Z,101943.64
2018-02-27T19:12:00.424Z,101943.19
2018-02-27T19:14:28.012Z,101946.24
2018-02-27T19:16:55.626Z,101946.70
2018-02-27T19:19:23.218Z,101947.59
2018-02-27T19:21:50.906Z,101955.84
2018-02-27T19:24:18.499Z,101951.59
2018-02-27T19:26:46.177Z,101958.74
2018-02-27T19:29:13.787Z,101958.31
2018-02-27T19:31:41.419Z,101957.00
2018-02-27T19:34:14.578Z,101960.12
2018-02-27T19:36:47.584Z,101947.39
2018-02-27T19:45:43.062Z,101959.55
2018-02-27T19:48:11.558Z,101959.08
2018-02-27T19:50:39.247Z,101963.73
2018-02-27T19:53:08.976Z,101957.75
2018-02-27T19:55:37.622Z,101962.23
2018-02-27T19:58:07.860Z,101963.60
2018-02-27T20:00:37.404Z,101972.77
2018-02-27T20:03:06.928Z,101972.81
2018-02-27T20:05:36.293Z,101979.34
2018-02-27T20:08:06.016Z,101970.49
2018-02-27T20:10:36.309Z,101986.41
2018-02-27T20:13:05.226Z,101991.96
2018-02-27T20:15:35.399Z,101991.80
2018-02-27T20:18:08.620Z,101995.80
2018-02-27T20:20:36.271Z,101993.20
2018-02-27T20:23:09.371Z,102002.45
2018-02-27T20:25:37.889Z,102010.25
2018-02-27T20:28:05.519Z,102010.77
2018-02-27T20:30:33.811Z,102011.99
2018-02-27T20:33:01.432Z,102020.49
2018-02-27T20:35:29.026Z,102020.72
2018-02-27T20:37:57.455Z,102022.19
2018-02-27T20:40:25.853Z,102027.21
2018-02-27T20:42:54.373Z,102037.55
2018-02-27T20:45:21.950Z,102033.92
2018-02-27T20:47:49.567Z,102029.86
2018-02-27T20:50:17.264Z,102035.19
2018-02-27T20:52:44.839Z,102044.98
2018-02-27T20:55:12.415Z,102046.66
2018-02-27T20:57:40.008Z,102045.70
2018-02-27T21:00:07.627Z,102053.36
2018-02-27T21:02:35.211Z,102047.89
2018-02-27T21:05:02.935Z,102058.84
2018-02-27T21:07:30.511Z,102061.03
2018-02-27T21:09:58.127Z,102067.86
2018-02-27T21:12:25.707Z,102066.24
2018-02-27T21:14:53.324Z,102068.54
2018-02-27T21:17:20.941Z,102071.29
2018-02-27T21:19:48.559Z,102075.47
2018-02-27T21:22:16.139Z,102070.52
2018-02-27T21:24:43.796Z,102075.95
2018-02-27T21:27:11.375Z,102076.74
2018-02-27T21:29:39.448Z,102068.97
2018-02-27T21:32:08.116Z,102067.03
2018-02-27T21:34:36.611Z,102071.11
2018-02-27T21:37:04.211Z,102077.85
2018-02-27T21:39:31.788Z,102084.19
2018-02-27T21:41:59.372Z,102079.30
2018-02-27T21:44:26.983Z,102077.63
2018-02-27T21:46:54.571Z,102080.36
2018-02-27T21:49:23.222Z,102073.96
2018-02-27T21:51:50.803Z,102083.07
2018-02-27T21:54:18.379Z,102083.09
2018-02-27T21:56:46.010Z,102084.73
2018-02-27T21:59:13.590Z,102091.63
2018-02-27T22:01:41.172Z,102088.46
2018-02-27T22:04:08.758Z,102093.80
2018-02-27T22:06:36.334Z,102094.70
2018-02-27T22:09:03.915Z,102097.64
2018-02-27T22:11:31.562Z,102099.66
2018-02-27T22:13:59.991Z,102096.79
2018-02-27T22:16:27.574Z,102103.03
2018-02-27T22:18:55.981Z,102104.17
2018-02-27T22:21:23.559Z,102103.61
2018-02-27T22:23:51.183Z,102105.31
2018-02-27T22:26:18.758Z,102113.89
2018-02-27T22:28:46.331Z,102104.59
2018-02-27T22:31:13.915Z,102113.05
2018-02-27T22:33:41.511Z,102116.25
2018-02-27T22:36:09.102Z,102111.13
2018-02-27T22:38:36.683Z,102112.92
2018-02-27T22:41:05.090Z,102119.34
2018-02-27T22:43:33.501Z,102119.93
2018-02-27T22:46:01.071Z,102127.12
2018-02-27T22:48:28.674Z,102120.50
2018-02-27T22:50:57.107Z,102124.19
2018-02-27T22:53:24.702Z,102122.61
2018-02-27T22:55:53.252Z,102129.70
2018-02-27T22:58:21.610Z,102127.23
2018-02-27T23:00:49.192Z,102128.21
2018-02-27T23:03:17.836Z,102123.66
2018-02-27T23:05:46.323Z,102126.08
2018-02-27T23:08:13.911Z,102123.19
2018-02-27T23:10:47.792Z,102123.22
2018-02-27T23:13:17.382Z,102122.32
2018-02-27T23:15:45.783Z,102130.41
2018-02-27T23:21:11.285Z,102131.15
2018-02-27T23:23:39.047Z,102136.80
2018-02-27T23:26:07.748Z,102130.79
2018-02-27T23:28:36.340Z,102128.02
2018-02-27T23:31:06.074Z,102133.60
2018-02-27T23:33:37.210Z,102127.41
2018-02-27T23:36:04.804Z,102140.20
2018-02-27T23:38:32.395Z,102130.52
2018-02-27T23:40:59.989Z,102138.86
2018-02-27T23:43:27.582Z,102135.41
2018-02-27T23:45:55.168Z,102133.64
2018-02-27T23:48:22.757Z,102129.20
2018-02-27T23:50:50.352Z,102131.52
2018-02-27T23:53:18.084Z,102133.53
2018-02-27T23:55:46.367Z,102133.02
2018-02-27T23:58:14.012Z,102140.61
